sensor_id;sensor_type;location;lat;lon;timestamp;temperature;humidity
67279;DHT22;54193;53.746;10.058;2023-07-31T00:00:35;13.91;94.46
67279;DHT22;54193;53.746;10.058;2023-07-31T00:03:21;13.87;94.41
67279;DHT22;54193;53.746;10.058;2023-07-31T00:06:07;13.90;94.41
67279;DHT22;54193;53.746;10.058;2023-07-31T00:08:52;13.87;94.44
67279;DHT22;54193;53.746;10.058;2023-07-31T00:11:38;13.90;94.45
67279;DHT22;54193;53.746;10.058;2023-07-31T00:14:23;13.92;94.40
67279;DHT22;54193;53.746;10.058;2023-07-31T00:17:09;14.00;94.31
67279;DHT22;54193;53.746;10.058;2023-07-31T00:19:55;13.97;94.23
67279;DHT22;54193;53.746;10.058;2023-07-31T00:22:40;13.91;94.23
67279;DHT22;54193;53.746;10.058;2023-07-31T00:29:08;13.84;94.24
67279;DHT22;54193;53.746;10.058;2023-07-31T00:31:53;13.85;94.26
67279;DHT22;54193;53.746;10.058;2023-07-31T00:34:39;13.87;94.25
67279;DHT22;54193;53.746;10.058;2023-07-31T00:37:24;13.95;94.23
67279;DHT22;54193;53.746;10.058;2023-07-31T00:40:11;13.98;93.95
67279;DHT22;54193;53.746;10.058;2023-07-31T00:42:56;14.01;94.07
67279;DHT22;54193;53.746;10.058;2023-07-31T00:45:42;14.05;94.00
67279;DHT22;54193;53.746;10.058;2023-07-31T00:48:28;14.08;93.76
67279;DHT22;54193;53.746;10.058;2023-07-31T00:51:13;14.17;93.92
67279;DHT22;54193;53.746;10.058;2023-07-31T00:54:00;14.21;93.83
67279;DHT22;54193;53.746;10.058;2023-07-31T00:56:46;14.19;93.71
67279;DHT22;54193;53.746;10.058;2023-07-31T00:59:34;14.11;93.52
67279;DHT22;54193;53.746;10.058;2023-07-31T01:02:19;14.02;93.64
67279;DHT22;54193;53.746;10.058;2023-07-31T01:05:05;14.01;93.57
67279;DHT22;54193;53.746;10.058;2023-07-31T01:08:08;13.91;93.47
67279;DHT22;54193;53.746;10.058;2023-07-31T01:11:12;13.92;93.46
67279;DHT22;54193;53.746;10.058;2023-07-31T01:14:00;13.91;93.41
67279;DHT22;54193;53.746;10.058;2023-07-31T01:16:45;13.85;93.45
67279;DHT22;54193;53.746;10.058;2023-07-31T01:19:31;13.82;93.35
67279;DHT22;54193;53.746;10.058;2023-07-31T01:22:39;13.81;93.30
67279;DHT22;54193;53.746;10.058;2023-07-31T01:25:45;13.82;93.24
67279;DHT22;54193;53.746;10.058;2023-07-31T01:29:12;13.77;93.06
67279;DHT22;54193;53.746;10.058;2023-07-31T01:31:56;13.82;92.99
67279;DHT22;54193;53.746;10.058;2023-07-31T01:34:44;13.73;92.97
67279;DHT22;54193;53.746;10.058;2023-07-31T01:37:29;13.74;93.05
67279;DHT22;54193;53.746;10.058;2023-07-31T01:40:15;13.78;93.05
67279;DHT22;54193;53.746;10.058;2023-07-31T01:43:01;13.78;92.89
67279;DHT22;54193;53.746;10.058;2023-07-31T01:45:46;13.78;92.94
67279;DHT22;54193;53.746;10.058;2023-07-31T01:48:32;13.82;92.96
67279;DHT22;54193;53.746;10.058;2023-07-31T01:51:21;13.80;92.83
67279;DHT22;54193;53.746;10.058;2023-07-31T01:54:06;13.80;92.84
67279;DHT22;54193;53.746;10.058;2023-07-31T01:56:52;13.81;92.95
67279;DHT22;54193;53.746;10.058;2023-07-31T01:59:38;13.87;92.88
67279;DHT22;54193;53.746;10.058;2023-07-31T02:02:23;13.92;92.88
67279;DHT22;54193;53.746;10.058;2023-07-31T02:05:09;14.01;92.67
67279;DHT22;54193;53.746;10.058;2023-07-31T02:07:55;13.95;92.65
67279;DHT22;54193;53.746;10.058;2023-07-31T02:10:41;13.97;92.57
67279;DHT22;54193;53.746;10.058;2023-07-31T02:13:27;13.91;92.85
67279;DHT22;54193;53.746;10.058;2023-07-31T02:16:12;13.92;92.87
67279;DHT22;54193;53.746;10.058;2023-07-31T02:18:58;13.91;92.83
67279;DHT22;54193;53.746;10.058;2023-07-31T02:21:44;13.92;92.88
67279;DHT22;54193;53.746;10.058;2023-07-31T02:24:29;13.92;93.03
67279;DHT22;54193;53.746;10.058;2023-07-31T02:27:15;13.92;93.05
67279;DHT22;54193;53.746;10.058;2023-07-31T02:30:01;13.91;93.15
67279;DHT22;54193;53.746;10.058;2023-07-31T02:32:46;13.98;93.07
67279;DHT22;54193;53.746;10.058;2023-07-31T02:35:32;14.00;93.04
67279;DHT22;54193;53.746;10.058;2023-07-31T02:38:17;14.02;93.14
67279;DHT22;54193;53.746;10.058;2023-07-31T02:41:03;14.00;93.10
67279;DHT22;54193;53.746;10.058;2023-07-31T02:43:49;13.97;93.19
67279;DHT22;54193;53.746;10.058;2023-07-31T02:46:34;14.00;93.18
67279;DHT22;54193;53.746;10.058;2023-07-31T02:49:20;14.00;93.27
67279;DHT22;54193;53.746;10.058;2023-07-31T02:52:06;14.00;93.32
67279;DHT22;54193;53.746;10.058;2023-07-31T02:54:52;13.97;93.37
67279;DHT22;54193;53.746;10.058;2023-07-31T02:57:37;14.04;93.32
67279;DHT22;54193;53.746;10.058;2023-07-31T03:00:23;14.05;93.33
67279;DHT22;54193;53.746;10.058;2023-07-31T03:03:09;14.05;93.46
67279;DHT22;54193;53.746;10.058;2023-07-31T03:05:54;14.05;93.39
67279;DHT22;54193;53.746;10.058;2023-07-31T03:08:40;14.08;93.44
67279;DHT22;54193;53.746;10.058;2023-07-31T03:11:26;14.12;93.43
67279;DHT22;54193;53.746;10.058;2023-07-31T03:14:11;14.15;93.42
67279;DHT22;54193;53.746;10.058;2023-07-31T03:16:57;14.17;93.47
67279;DHT22;54193;53.746;10.058;2023-07-31T03:19:42;14.19;93.47
67279;DHT22;54193;53.746;10.058;2023-07-31T03:22:28;14.26;93.54
67279;DHT22;54193;53.746;10.058;2023-07-31T03:25:14;14.28;93.45
67279;DHT22;54193;53.746;10.058;2023-07-31T03:27:59;14.29;93.33
67279;DHT22;54193;53.746;10.058;2023-07-31T03:30:45;14.26;93.33
67279;DHT22;54193;53.746;10.058;2023-07-31T03:33:31;14.26;93.41
67279;DHT22;54193;53.746;10.058;2023-07-31T03:36:16;14.25;93.44
67279;DHT22;54193;53.746;10.058;2023-07-31T03:39:02;14.28;93.44
67279;DHT22;54193;53.746;10.058;2023-07-31T03:41:48;14.26;93.38
67279;DHT22;54193;53.746;10.058;2023-07-31T03:44:34;14.26;93.38
67279;DHT22;54193;53.746;10.058;2023-07-31T03:47:21;14.25;93.51
67279;DHT22;54193;53.746;10.058;2023-07-31T03:50:07;14.29;93.50
67279;DHT22;54193;53.746;10.058;2023-07-31T03:52:52;14.30;93.47
67279;DHT22;54193;53.746;10.058;2023-07-31T03:55:38;14.37;93.48
67279;DHT22;54193;53.746;10.058;2023-07-31T03:58:24;14.39;93.32
67279;DHT22;54193;53.746;10.058;2023-07-31T04:01:09;14.43;93.29
67279;DHT22;54193;53.746;10.058;2023-07-31T04:03:55;14.46;93.38
67279;DHT22;54193;53.746;10.058;2023-07-31T04:06:41;14.49;93.32
67279;DHT22;54193;53.746;10.058;2023-07-31T04:09:26;14.52;93.31
67279;DHT22;54193;53.746;10.058;2023-07-31T04:12:12;14.55;93.25
67279;DHT22;54193;53.746;10.058;2023-07-31T04:14:57;14.57;93.20
67279;DHT22;54193;53.746;10.058;2023-07-31T04:17:43;14.64;93.13
67279;DHT22;54193;53.746;10.058;2023-07-31T04:20:29;14.66;93.03
67279;DHT22;54193;53.746;10.058;2023-07-31T04:23:14;14.70;92.94
67279;DHT22;54193;53.746;10.058;2023-07-31T04:26:00;14.74;92.92
67279;DHT22;54193;53.746;10.058;2023-07-31T04:28:45;14.81;92.78
67279;DHT22;54193;53.746;10.058;2023-07-31T04:31:31;14.81;92.72
67279;DHT22;54193;53.746;10.058;2023-07-31T04:34:17;14.87;92.61
67279;DHT22;54193;53.746;10.058;2023-07-31T04:37:02;14.90;92.43
67279;DHT22;54193;53.746;10.058;2023-07-31T04:39:48;14.90;92.60
67279;DHT22;54193;53.746;10.058;2023-07-31T04:42:34;14.95;92.48
67279;DHT22;54193;53.746;10.058;2023-07-31T04:45:20;15.01;92.52
67279;DHT22;54193;53.746;10.058;2023-07-31T04:48:05;14.98;92.42
67279;DHT22;54193;53.746;10.058;2023-07-31T04:50:51;14.94;92.32
67279;DHT22;54193;53.746;10.058;2023-07-31T04:53:37;14.98;92.32
67279;DHT22;54193;53.746;10.058;2023-07-31T04:56:22;15.00;92.28
67279;DHT22;54193;53.746;10.058;2023-07-31T04:59:08;14.98;92.19
67279;DHT22;54193;53.746;10.058;2023-07-31T05:01:53;15.00;92.25
67279;DHT22;54193;53.746;10.058;2023-07-31T05:04:39;15.04;92.10
67279;DHT22;54193;53.746;10.058;2023-07-31T05:07:25;15.10;91.87
67279;DHT22;54193;53.746;10.058;2023-07-31T05:10:10;15.10;91.95
67279;DHT22;54193;53.746;10.058;2023-07-31T05:12:56;15.14;91.78
67279;DHT22;54193;53.746;10.058;2023-07-31T05:15:41;15.15;91.78
67279;DHT22;54193;53.746;10.058;2023-07-31T05:18:27;15.15;91.86
67279;DHT22;54193;53.746;10.058;2023-07-31T05:21:13;15.15;92.01
67279;DHT22;54193;53.746;10.058;2023-07-31T05:23:58;15.11;92.04
67279;DHT22;54193;53.746;10.058;2023-07-31T05:26:44;15.17;92.11
67279;DHT22;54193;53.746;10.058;2023-07-31T05:29:29;15.14;91.82
67279;DHT22;54193;53.746;10.058;2023-07-31T05:32:15;15.17;92.12
67279;DHT22;54193;53.746;10.058;2023-07-31T05:35:01;15.22;92.11
67279;DHT22;54193;53.746;10.058;2023-07-31T05:37:46;15.21;92.05
67279;DHT22;54193;53.746;10.058;2023-07-31T05:40:33;15.22;92.01
67279;DHT22;54193;53.746;10.058;2023-07-31T05:43:18;15.21;92.24
67279;DHT22;54193;53.746;10.058;2023-07-31T05:46:04;15.28;92.20
67279;DHT22;54193;53.746;10.058;2023-07-31T05:48:50;15.31;92.01
67279;DHT22;54193;53.746;10.058;2023-07-31T05:51:35;15.28;92.00
67279;DHT22;54193;53.746;10.058;2023-07-31T05:54:21;15.31;91.85
67279;DHT22;54193;53.746;10.058;2023-07-31T05:57:07;15.28;91.76
67279;DHT22;54193;53.746;10.058;2023-07-31T05:59:52;15.27;91.54
67279;DHT22;54193;53.746;10.058;2023-07-31T06:02:39;15.28;91.67
67279;DHT22;54193;53.746;10.058;2023-07-31T06:05:24;15.31;91.75
67279;DHT22;54193;53.746;10.058;2023-07-31T06:08:11;15.32;91.67
67279;DHT22;54193;53.746;10.058;2023-07-31T06:10:57;15.36;91.69
67279;DHT22;54193;53.746;10.058;2023-07-31T06:13:42;15.39;91.68
67279;DHT22;54193;53.746;10.058;2023-07-31T06:16:30;15.40;91.77
67279;DHT22;54193;53.746;10.058;2023-07-31T06:19:15;15.42;91.89
67279;DHT22;54193;53.746;10.058;2023-07-31T06:22:01;15.40;92.15
67279;DHT22;54193;53.746;10.058;2023-07-31T06:24:47;15.39;91.98
67279;DHT22;54193;53.746;10.058;2023-07-31T06:27:32;15.39;92.28
67279;DHT22;54193;53.746;10.058;2023-07-31T06:30:18;15.38;92.35
67279;DHT22;54193;53.746;10.058;2023-07-31T06:33:03;15.42;92.22
67279;DHT22;54193;53.746;10.058;2023-07-31T06:35:49;15.42;92.34
67279;DHT22;54193;53.746;10.058;2023-07-31T06:38:35;15.40;92.35
67279;DHT22;54193;53.746;10.058;2023-07-31T06:41:20;15.42;92.26
67279;DHT22;54193;53.746;10.058;2023-07-31T06:44:06;15.45;92.01
67279;DHT22;54193;53.746;10.058;2023-07-31T06:46:52;15.50;92.38
67279;DHT22;54193;53.746;10.058;2023-07-31T06:49:37;15.56;92.46
67279;DHT22;54193;53.746;10.058;2023-07-31T06:52:23;15.62;92.29
67279;DHT22;54193;53.746;10.058;2023-07-31T06:55:19;15.59;92.25
67279;DHT22;54193;53.746;10.058;2023-07-31T06:58:05;15.59;92.46
67279;DHT22;54193;53.746;10.058;2023-07-31T07:00:51;15.48;91.90
67279;DHT22;54193;53.746;10.058;2023-07-31T07:03:37;15.55;92.34
67279;DHT22;54193;53.746;10.058;2023-07-31T07:06:22;15.52;92.66
67279;DHT22;54193;53.746;10.058;2023-07-31T07:09:08;15.42;92.61
67279;DHT22;54193;53.746;10.058;2023-07-31T07:11:54;15.46;92.91
67279;DHT22;54193;53.746;10.058;2023-07-31T07:14:39;15.46;92.93
67279;DHT22;54193;53.746;10.058;2023-07-31T07:17:29;15.42;93.17
67279;DHT22;54193;53.746;10.058;2023-07-31T07:20:18;15.45;93.30
67279;DHT22;54193;53.746;10.058;2023-07-31T07:23:05;15.53;93.13
67279;DHT22;54193;53.746;10.058;2023-07-31T07:25:51;15.56;93.29
67279;DHT22;54193;53.746;10.058;2023-07-31T07:28:37;15.48;93.10
67279;DHT22;54193;53.746;10.058;2023-07-31T07:31:22;15.52;93.25
67279;DHT22;54193;53.746;10.058;2023-07-31T07:34:08;15.56;93.15
67279;DHT22;54193;53.746;10.058;2023-07-31T07:36:54;15.60;93.13
67279;DHT22;54193;53.746;10.058;2023-07-31T07:39:40;15.67;93.38
67279;DHT22;54193;53.746;10.058;2023-07-31T07:42:26;15.66;93.42
67279;DHT22;54193;53.746;10.058;2023-07-31T07:45:12;15.62;93.24
67279;DHT22;54193;53.746;10.058;2023-07-31T07:47:58;15.70;93.37
67279;DHT22;54193;53.746;10.058;2023-07-31T07:50:44;15.67;93.13
67279;DHT22;54193;53.746;10.058;2023-07-31T07:53:30;15.70;93.01
67279;DHT22;54193;53.746;10.058;2023-07-31T07:56:16;15.76;93.00
67279;DHT22;54193;53.746;10.058;2023-07-31T07:59:02;15.87;93.20
67279;DHT22;54193;53.746;10.058;2023-07-31T08:01:47;15.90;93.12
67279;DHT22;54193;53.746;10.058;2023-07-31T08:04:33;16.03;93.08
67279;DHT22;54193;53.746;10.058;2023-07-31T08:07:18;15.96;92.65
67279;DHT22;54193;53.746;10.058;2023-07-31T08:10:04;15.87;92.74
67279;DHT22;54193;53.746;10.058;2023-07-31T08:12:50;15.84;92.62
67279;DHT22;54193;53.746;10.058;2023-07-31T08:15:36;15.84;92.65
67279;DHT22;54193;53.746;10.058;2023-07-31T08:18:22;15.98;92.83
67279;DHT22;54193;53.746;10.058;2023-07-31T08:21:08;15.98;92.91
67279;DHT22;54193;53.746;10.058;2023-07-31T08:23:53;16.11;92.97
67279;DHT22;54193;53.746;10.058;2023-07-31T08:26:39;16.18;92.60
67279;DHT22;54193;53.746;10.058;2023-07-31T08:29:26;16.14;92.35
67279;DHT22;54193;53.746;10.058;2023-07-31T08:32:11;16.21;92.24
67279;DHT22;54193;53.746;10.058;2023-07-31T08:34:57;16.32;92.40
67279;DHT22;54193;53.746;10.058;2023-07-31T08:37:42;16.33;91.96
67279;DHT22;54193;53.746;10.058;2023-07-31T08:40:28;16.53;91.90
67279;DHT22;54193;53.746;10.058;2023-07-31T08:43:14;16.62;91.79
67279;DHT22;54193;53.746;10.058;2023-07-31T08:46:00;16.76;91.72
67279;DHT22;54193;53.746;10.058;2023-07-31T08:48:47;16.76;91.54
67279;DHT22;54193;53.746;10.058;2023-07-31T08:51:36;16.66;91.45
67279;DHT22;54193;53.746;10.058;2023-07-31T08:54:22;16.56;90.97
67279;DHT22;54193;53.746;10.058;2023-07-31T08:57:09;16.63;91.32
67279;DHT22;54193;53.746;10.058;2023-07-31T08:59:55;16.49;91.78
67279;DHT22;54193;53.746;10.058;2023-07-31T09:02:51;16.39;92.37
67279;DHT22;54193;53.746;10.058;2023-07-31T09:05:39;16.48;92.10
67279;DHT22;54193;53.746;10.058;2023-07-31T09:08:30;16.53;92.27
67279;DHT22;54193;53.746;10.058;2023-07-31T09:11:16;16.49;92.19
67279;DHT22;54193;53.746;10.058;2023-07-31T09:14:02;16.45;92.29
67279;DHT22;54193;53.746;10.058;2023-07-31T09:16:54;16.47;92.02
67279;DHT22;54193;53.746;10.058;2023-07-31T09:19:40;16.38;92.12
67279;DHT22;54193;53.746;10.058;2023-07-31T09:22:34;16.45;91.95
67279;DHT22;54193;53.746;10.058;2023-07-31T09:25:21;16.48;91.74
67279;DHT22;54193;53.746;10.058;2023-07-31T09:28:08;16.60;91.88
67279;DHT22;54193;53.746;10.058;2023-07-31T09:30:54;16.59;91.47
67279;DHT22;54193;53.746;10.058;2023-07-31T09:33:54;16.60;91.37
67279;DHT22;54193;53.746;10.058;2023-07-31T09:36:48;16.76;91.58
67279;DHT22;54193;53.746;10.058;2023-07-31T09:39:45;16.72;91.06
67279;DHT22;54193;53.746;10.058;2023-07-31T09:42:31;16.81;90.94
67279;DHT22;54193;53.746;10.058;2023-07-31T09:45:18;16.91;91.01
67279;DHT22;54193;53.746;10.058;2023-07-31T09:48:17;17.20;90.39
67279;DHT22;54193;53.746;10.058;2023-07-31T09:51:04;17.31;89.88
67279;DHT22;54193;53.746;10.058;2023-07-31T09:53:50;17.38;89.76
67279;DHT22;54193;53.746;10.058;2023-07-31T09:56:37;17.65;88.52
67279;DHT22;54193;53.746;10.058;2023-07-31T09:59:24;17.80;89.53
67279;DHT22;54193;53.746;10.058;2023-07-31T10:02:15;17.78;89.94
67279;DHT22;54193;53.746;10.058;2023-07-31T10:05:02;17.59;89.49
67279;DHT22;54193;53.746;10.058;2023-07-31T10:07:53;17.39;89.80
67279;DHT22;54193;53.746;10.058;2023-07-31T10:10:43;17.00;89.03
67279;DHT22;54193;53.746;10.058;2023-07-31T10:13:30;17.10;90.86
67279;DHT22;54193;53.746;10.058;2023-07-31T10:16:15;16.87;90.15
67279;DHT22;54193;53.746;10.058;2023-07-31T10:19:02;16.80;91.15
67279;DHT22;54193;53.746;10.058;2023-07-31T10:21:49;16.59;90.42
67279;DHT22;54193;53.746;10.058;2023-07-31T10:24:36;16.60;91.54
67279;DHT22;54193;53.746;10.058;2023-07-31T10:27:23;16.52;91.23
67279;DHT22;54193;53.746;10.058;2023-07-31T10:30:12;16.49;91.26
67279;DHT22;54193;53.746;10.058;2023-07-31T10:32:58;16.55;91.99
67279;DHT22;54193;53.746;10.058;2023-07-31T10:35:44;16.56;92.16
67279;DHT22;54193;53.746;10.058;2023-07-31T10:38:30;16.59;92.21
67279;DHT22;54193;53.746;10.058;2023-07-31T10:41:15;16.59;92.29
67279;DHT22;54193;53.746;10.058;2023-07-31T10:44:01;16.52;92.34
67279;DHT22;54193;53.746;10.058;2023-07-31T10:46:46;16.51;92.18
67279;DHT22;54193;53.746;10.058;2023-07-31T10:49:32;16.60;92.65
67279;DHT22;54193;53.746;10.058;2023-07-31T10:52:21;16.62;92.51
67279;DHT22;54193;53.746;10.058;2023-07-31T10:58:13;16.81;92.50
67279;DHT22;54193;53.746;10.058;2023-07-31T11:01:01;16.83;92.80
67279;DHT22;54193;53.746;10.058;2023-07-31T11:03:49;16.87;92.51
67279;DHT22;54193;53.746;10.058;2023-07-31T11:06:37;16.90;91.93
67279;DHT22;54193;53.746;10.058;2023-07-31T11:09:24;16.81;91.48
67279;DHT22;54193;53.746;10.058;2023-07-31T11:12:12;16.65;91.37
67279;DHT22;54193;53.746;10.058;2023-07-31T11:14:58;16.55;91.75
67279;DHT22;54193;53.746;10.058;2023-07-31T11:17:43;16.48;91.57
67279;DHT22;54193;53.746;10.058;2023-07-31T11:20:30;16.48;92.08
67279;DHT22;54193;53.746;10.058;2023-07-31T11:23:17;16.44;92.01
67279;DHT22;54193;53.746;10.058;2023-07-31T11:26:05;16.45;92.11
67279;DHT22;54193;53.746;10.058;2023-07-31T11:28:51;16.47;91.99
67279;DHT22;54193;53.746;10.058;2023-07-31T11:31:42;16.47;91.63
67279;DHT22;54193;53.746;10.058;2023-07-31T11:34:28;16.36;91.54
67279;DHT22;54193;53.746;10.058;2023-07-31T11:37:14;16.29;91.22
67279;DHT22;54193;53.746;10.058;2023-07-31T11:40:00;15.87;90.15
67279;DHT22;54193;53.746;10.058;2023-07-31T11:42:46;15.69;90.51
67279;DHT22;54193;53.746;10.058;2023-07-31T11:45:33;15.49;89.96
67279;DHT22;54193;53.746;10.058;2023-07-31T11:48:30;15.60;91.01
67279;DHT22;54193;53.746;10.058;2023-07-31T11:51:16;15.70;91.15
67279;DHT22;54193;53.746;10.058;2023-07-31T11:54:02;15.40;90.37
67279;DHT22;54193;53.746;10.058;2023-07-31T11:56:48;15.49;91.28
67279;DHT22;54193;53.746;10.058;2023-07-31T11:59:35;15.87;91.43
67279;DHT22;54193;53.746;10.058;2023-07-31T12:02:21;16.10;90.30
67279;DHT22;54193;53.746;10.058;2023-07-31T12:05:11;16.22;89.18
67279;DHT22;54193;53.746;10.058;2023-07-31T12:07:57;16.38;89.75
67279;DHT22;54193;53.746;10.058;2023-07-31T12:10:43;16.45;89.15
67279;DHT22;54193;53.746;10.058;2023-07-31T12:13:31;16.32;89.15
67279;DHT22;54193;53.746;10.058;2023-07-31T12:16:17;16.20;89.91
67279;DHT22;54193;53.746;10.058;2023-07-31T12:19:03;16.26;90.38
67279;DHT22;54193;53.746;10.058;2023-07-31T12:21:49;16.36;89.73
67279;DHT22;54193;53.746;10.058;2023-07-31T12:24:34;16.38;89.92
67279;DHT22;54193;53.746;10.058;2023-07-31T12:27:20;16.42;89.52
67279;DHT22;54193;53.746;10.058;2023-07-31T12:30:32;16.39;90.28
67279;DHT22;54193;53.746;10.058;2023-07-31T12:33:18;16.55;90.50
67279;DHT22;54193;53.746;10.058;2023-07-31T12:36:09;16.66;89.29
67279;DHT22;54193;53.746;10.058;2023-07-31T12:38:56;16.21;89.12
67279;DHT22;54193;53.746;10.058;2023-07-31T12:41:43;16.58;90.65
67279;DHT22;54193;53.746;10.058;2023-07-31T12:44:29;16.01;88.73
67279;DHT22;54193;53.746;10.058;2023-07-31T12:47:14;16.26;89.76
67279;DHT22;54193;53.746;10.058;2023-07-31T12:50:00;16.41;89.12
67279;DHT22;54193;53.746;10.058;2023-07-31T12:52:46;16.55;88.89
67279;DHT22;54193;53.746;10.058;2023-07-31T12:55:32;16.58;89.20
67279;DHT22;54193;53.746;10.058;2023-07-31T12:58:22;16.38;89.19
67279;DHT22;54193;53.746;10.058;2023-07-31T13:01:08;16.05;89.61
67279;DHT22;54193;53.746;10.058;2023-07-31T13:03:53;15.71;90.20
67279;DHT22;54193;53.746;10.058;2023-07-31T13:06:39;15.71;90.33
67279;DHT22;54193;53.746;10.058;2023-07-31T13:09:25;15.89;90.62
67279;DHT22;54193;53.746;10.058;2023-07-31T13:12:10;15.74;90.95
67279;DHT22;54193;53.746;10.058;2023-07-31T13:14:56;15.98;91.44
67279;DHT22;54193;53.746;10.058;2023-07-31T13:17:42;16.17;91.39
67279;DHT22;54193;53.746;10.058;2023-07-31T13:20:27;16.28;91.25
67279;DHT22;54193;53.746;10.058;2023-07-31T13:23:13;16.52;91.19
67279;DHT22;54193;53.746;10.058;2023-07-31T13:25:58;16.28;90.99
67279;DHT22;54193;53.746;10.058;2023-07-31T13:28:44;16.00;91.12
67279;DHT22;54193;53.746;10.058;2023-07-31T13:31:30;16.36;91.03
67279;DHT22;54193;53.746;10.058;2023-07-31T13:34:15;16.75;90.60
67279;DHT22;54193;53.746;10.058;2023-07-31T13:37:01;16.72;89.65
67279;DHT22;54193;53.746;10.058;2023-07-31T13:39:47;16.81;90.51
67279;DHT22;54193;53.746;10.058;2023-07-31T13:42:32;16.04;89.43
67279;DHT22;54193;53.746;10.058;2023-07-31T13:45:18;15.79;90.40
67279;DHT22;54193;53.746;10.058;2023-07-31T13:48:04;15.80;91.90
67279;DHT22;54193;53.746;10.058;2023-07-31T13:50:49;16.00;92.19
67279;DHT22;54193;53.746;10.058;2023-07-31T13:53:35;16.25;92.24
67279;DHT22;54193;53.746;10.058;2023-07-31T13:56:21;16.15;91.53
67279;DHT22;54193;53.746;10.058;2023-07-31T13:59:06;16.14;91.85
67279;DHT22;54193;53.746;10.058;2023-07-31T14:01:52;15.82;91.12
67279;DHT22;54193;53.746;10.058;2023-07-31T14:04:38;15.67;92.15
67279;DHT22;54193;53.746;10.058;2023-07-31T14:07:23;15.71;92.53
67279;DHT22;54193;53.746;10.058;2023-07-31T14:10:09;15.93;92.37
67279;DHT22;54193;53.746;10.058;2023-07-31T14:12:55;15.89;92.58
67279;DHT22;54193;53.746;10.058;2023-07-31T14:15:43;15.89;93.70
67279;DHT22;54193;53.746;10.058;2023-07-31T14:18:29;16.13;93.66
67279;DHT22;54193;53.746;10.058;2023-07-31T14:21:14;15.96;92.85
67279;DHT22;54193;53.746;10.058;2023-07-31T14:24:00;16.14;92.98
67279;DHT22;54193;53.746;10.058;2023-07-31T14:26:46;16.24;93.18
67279;DHT22;54193;53.746;10.058;2023-07-31T14:29:32;16.44;92.74
67279;DHT22;54193;53.746;10.058;2023-07-31T14:32:17;16.36;92.29
67279;DHT22;54193;53.746;10.058;2023-07-31T14:35:03;16.45;93.46
67279;DHT22;54193;53.746;10.058;2023-07-31T14:37:49;16.25;92.81
67279;DHT22;54193;53.746;10.058;2023-07-31T14:40:34;16.14;92.63
67279;DHT22;54193;53.746;10.058;2023-07-31T14:43:20;16.03;93.02
67279;DHT22;54193;53.746;10.058;2023-07-31T14:46:06;16.07;93.35
67279;DHT22;54193;53.746;10.058;2023-07-31T14:48:51;15.93;93.15
67279;DHT22;54193;53.746;10.058;2023-07-31T14:51:37;15.56;93.09
67279;DHT22;54193;53.746;10.058;2023-07-31T14:54:23;15.79;93.85
67279;DHT22;54193;53.746;10.058;2023-07-31T14:57:08;15.90;93.48
67279;DHT22;54193;53.746;10.058;2023-07-31T14:59:54;16.00;93.22
67279;DHT22;54193;53.746;10.058;2023-07-31T15:02:40;16.32;93.66
67279;DHT22;54193;53.746;10.058;2023-07-31T15:05:26;16.38;93.31
67279;DHT22;54193;53.746;10.058;2023-07-31T15:08:11;16.35;93.06
67279;DHT22;54193;53.746;10.058;2023-07-31T15:10:57;16.25;93.12
67279;DHT22;54193;53.746;10.058;2023-07-31T15:13:43;16.14;94.38
67279;DHT22;54193;53.746;10.058;2023-07-31T15:16:28;16.08;93.50
67279;DHT22;54193;53.746;10.058;2023-07-31T15:19:15;16.17;93.20
67279;DHT22;54193;53.746;10.058;2023-07-31T15:22:02;16.26;93.13
67279;DHT22;54193;53.746;10.058;2023-07-31T15:24:48;16.28;93.49
67279;DHT22;54193;53.746;10.058;2023-07-31T15:27:34;16.26;93.37
67279;DHT22;54193;53.746;10.058;2023-07-31T15:30:20;16.21;93.00
67279;DHT22;54193;53.746;10.058;2023-07-31T15:33:05;16.10;92.86
67279;DHT22;54193;53.746;10.058;2023-07-31T15:35:51;16.11;93.02
67279;DHT22;54193;53.746;10.058;2023-07-31T15:38:40;15.77;92.75
67279;DHT22;54193;53.746;10.058;2023-07-31T15:41:26;15.73;93.29
67279;DHT22;54193;53.746;10.058;2023-07-31T15:44:12;15.66;93.43
67279;DHT22;54193;53.746;10.058;2023-07-31T15:46:57;15.69;94.06
67279;DHT22;54193;53.746;10.058;2023-07-31T15:49:43;15.77;94.07
67279;DHT22;54193;53.746;10.058;2023-07-31T15:52:29;15.90;94.43
67279;DHT22;54193;53.746;10.058;2023-07-31T15:55:15;15.73;93.68
67279;DHT22;54193;53.746;10.058;2023-07-31T15:58:00;15.82;94.28
67279;DHT22;54193;53.746;10.058;2023-07-31T16:00:46;15.84;93.90
67279;DHT22;54193;53.746;10.058;2023-07-31T16:03:32;15.80;93.77
67279;DHT22;54193;53.746;10.058;2023-07-31T16:06:18;15.82;93.95
67279;DHT22;54193;53.746;10.058;2023-07-31T16:09:03;15.83;94.04
67279;DHT22;54193;53.746;10.058;2023-07-31T16:11:49;15.87;94.01
67279;DHT22;54193;53.746;10.058;2023-07-31T16:14:35;15.91;93.92
67279;DHT22;54193;53.746;10.058;2023-07-31T16:17:20;15.73;93.75
67279;DHT22;54193;53.746;10.058;2023-07-31T16:20:06;15.82;93.71
67279;DHT22;54193;53.746;10.058;2023-07-31T16:22:54;15.94;93.90
67279;DHT22;54193;53.746;10.058;2023-07-31T16:25:39;15.98;94.14
67279;DHT22;54193;53.746;10.058;2023-07-31T16:28:25;15.79;93.85
67279;DHT22;54193;53.746;10.058;2023-07-31T16:31:11;15.94;94.06
67279;DHT22;54193;53.746;10.058;2023-07-31T16:33:56;15.96;94.16
67279;DHT22;54193;53.746;10.058;2023-07-31T16:36:43;16.05;94.10
67279;DHT22;54193;53.746;10.058;2023-07-31T16:39:29;16.07;93.89
67279;DHT22;54193;53.746;10.058;2023-07-31T16:42:21;16.03;93.96
67279;DHT22;54193;53.746;10.058;2023-07-31T16:45:07;16.07;94.21
67279;DHT22;54193;53.746;10.058;2023-07-31T16:47:53;15.96;93.79
67279;DHT22;54193;53.746;10.058;2023-07-31T16:50:39;15.87;93.87
67279;DHT22;54193;53.746;10.058;2023-07-31T16:53:25;15.94;94.02
67279;DHT22;54193;53.746;10.058;2023-07-31T16:56:10;15.98;93.97
67279;DHT22;54193;53.746;10.058;2023-07-31T16:58:56;15.96;94.00
67279;DHT22;54193;53.746;10.058;2023-07-31T17:01:42;16.00;94.05
67279;DHT22;54193;53.746;10.058;2023-07-31T17:04:27;16.04;94.11
67279;DHT22;54193;53.746;10.058;2023-07-31T17:07:16;16.01;94.20
67279;DHT22;54193;53.746;10.058;2023-07-31T17:10:03;16.05;94.24
67279;DHT22;54193;53.746;10.058;2023-07-31T17:12:48;16.07;94.25
67279;DHT22;54193;53.746;10.058;2023-07-31T17:15:34;16.05;94.37
67279;DHT22;54193;53.746;10.058;2023-07-31T17:18:20;16.03;94.22
67279;DHT22;54193;53.746;10.058;2023-07-31T17:21:06;16.05;94.29